Time;durP1;ratioP1;P1;durP2;ratioP2;P2;SDS_P1;SDS_P2;PMS_P1;PMS_P2;Temp;Humidity;BMP_temperature;BMP_pressure;BME280_temperature;BME280_humidity;BME280_pressure;Samples;Min_cycle;Max_cycle;Signal;HPM_P1;HPM_P2
2022/05/08 00:02:22;;;;;;;18.30;9.55;;;13.80;99.90;;;;;;5073572;28;20062;-89
2022/05/08 00:04:52;;;;;;;19.65;8.82;;;13.80;99.90;;;;;;5073208;28;20029;-90
2022/05/08 00:07:26;;;;;;;23.40;9.75;;;13.70;99.90;;;;;;5073366;28;20430;-90
2022/05/08 00:09:51;;;;;;;26.08;11.68;;;13.80;99.90;;;;;;5072120;28;20358;-90
2022/05/08 00:12:20;;;;;;;22.38;10.63;;;13.70;99.90;;;;;;5072160;28;20078;-89
2022/05/08 00:14:45;;;;;;;16.70;11.02;;;13.80;99.90;;;;;;5073203;28;20021;-89
2022/05/08 00:17:23;;;;;;;18.70;10.45;;;13.70;99.90;;;;;;5073281;28;20081;-89
2022/05/08 00:19:49;;;;;;;14.45;9.60;;;13.80;99.90;;;;;;5071677;28;20060;-90
2022/05/08 00:22:19;;;;;;;15.55;10.63;;;13.70;99.90;;;;;;5073139;28;20044;-89
2022/05/08 00:24:44;;;;;;;17.85;11.20;;;13.70;99.90;;;;;;5073094;28;20082;-89
2022/05/08 00:27:11;;;;;;;20.63;10.50;;;13.70;99.90;;;;;;5073060;28;20419;-89
2022/05/08 00:29:36;;;;;;;23.00;11.50;;;13.70;99.90;;;;;;5073022;28;20047;-90
2022/05/08 00:32:03;;;;;;;23.75;12.50;;;13.60;99.90;;;;;;5073427;28;20020;-90
2022/05/08 00:34:28;;;;;;;16.48;10.60;;;13.50;99.90;;;;;;5071436;28;20052;-89
2022/05/08 00:36:56;;;;;;;24.02;12.88;;;13.60;99.90;;;;;;5071674;28;20036;-89
2022/05/08 00:39:22;;;;;;;21.92;13.13;;;13.60;99.90;;;;;;5072920;28;20025;-90
2022/05/08 00:41:47;;;;;;;26.10;15.10;;;13.50;99.90;;;;;;5071230;28;20051;-89
2022/05/08 00:44:47;;;;;;;21.13;13.35;;;13.60;99.90;;;;;;5072804;28;20074;-90
2022/05/08 00:47:13;;;;;;;25.45;13.63;;;13.60;99.90;;;;;;5071621;28;20033;-90
2022/05/08 00:49:38;;;;;;;22.95;13.63;;;13.50;99.90;;;;;;5071173;28;20032;-89
2022/05/08 00:52:05;;;;;;;24.40;14.02;;;13.50;99.90;;;;;;5071508;28;20380;-90
2022/05/08 00:54:35;;;;;;;27.48;15.52;;;13.40;99.90;;;;;;5071428;28;20025;-90
2022/05/08 00:57:01;;;;;;;26.98;14.90;;;13.50;99.90;;;;;;5071410;28;20024;-90
2022/05/08 00:59:28;;;;;;;27.00;14.95;;;13.40;99.90;;;;;;5071550;28;20020;-90
2022/05/08 01:01:53;;;;;;;35.03;16.80;;;13.40;99.90;;;;;;5071406;28;20023;-89
2022/05/08 01:04:23;;;;;;;26.67;16.35;;;13.40;99.90;;;;;;5070844;28;20372;-89
2022/05/08 01:06:48;;;;;;;31.08;16.50;;;13.40;99.90;;;;;;5072648;28;20494;-90
2022/05/08 01:09:27;;;;;;;22.92;14.90;;;13.30;99.90;;;;;;5072494;28;20060;-89
2022/05/08 01:11:54;;;;;;;30.02;17.60;;;13.30;99.90;;;;;;5072571;28;20150;-90
2022/05/08 01:14:22;;;;;;;24.52;16.63;;;13.30;99.90;;;;;;5072437;28;20126;-88
2022/05/08 01:16:47;;;;;;;27.30;16.70;;;13.30;99.90;;;;;;5071298;28;20052;-90
2022/05/08 01:19:15;;;;;;;28.98;16.38;;;13.30;99.90;;;;;;5072289;28;20102;-89
2022/05/08 01:21:42;;;;;;;25.67;16.10;;;13.20;99.90;;;;;;5072256;28;20048;-89
2022/05/08 01:24:23;;;;;;;31.27;16.08;;;13.20;99.90;;;;;;5072384;28;20036;-89
2022/05/08 01:26:49;;;;;;;27.60;17.05;;;13.20;99.90;;;;;;5072441;28;20408;-89
2022/05/08 01:29:28;;;;;;;36.45;18.13;;;13.20;99.90;;;;;;5072468;28;20147;-89
2022/05/08 01:31:54;;;;;;;29.60;18.27;;;13.20;99.90;;;;;;5072518;28;20549;-89
2022/05/08 01:34:27;;;;;;;32.17;17.80;;;13.20;99.90;;;;;;5070544;28;20481;-88
2022/05/08 01:36:53;;;;;;;26.42;16.60;;;13.20;99.90;;;;;;5072273;28;20028;-89
2022/05/08 01:39:23;;;;;;;21.25;15.55;;;13.10;99.90;;;;;;5071088;28;20480;-89
2022/05/08 01:41:49;;;;;;;28.40;17.40;;;13.10;99.90;;;;;;5070923;28;20135;-90
2022/05/08 01:44:15;;;;;;;23.27;15.55;;;13.10;99.90;;;;;;5070927;28;20025;-89
2022/05/08 01:46:45;;;;;;;28.10;16.50;;;13.10;99.90;;;;;;5072195;28;20366;-89
2022/05/08 01:49:11;;;;;;;22.98;15.57;;;13.10;99.90;;;;;;5072632;28;20028;-89
2022/05/08 01:51:55;;;;;;;27.00;16.10;;;13.10;99.90;;;;;;5076195;28;20020;-89
2022/05/08 01:54:21;;;;;;;27.10;16.45;;;13.10;99.90;;;;;;5076055;28;20028;-91
2022/05/08 01:56:59;;;;;;;25.00;15.40;;;13.00;99.90;;;;;;5075854;28;20469;-89
2022/05/08 01:59:25;;;;;;;28.50;17.15;;;13.10;99.90;;;;;;5075982;28;20021;-89
2022/05/08 02:01:51;;;;;;;24.65;16.85;;;13.10;99.90;;;;;;5075970;28;20035;-89
2022/05/08 02:04:17;;;;;;;26.65;16.60;;;13.00;99.90;;;;;;5075461;28;20028;-89
2022/05/08 02:07:01;;;;;;;25.52;16.42;;;13.00;99.90;;;;;;5074471;28;20024;-89
2022/05/08 02:09:26;;;;;;;24.85;15.70;;;13.00;99.90;;;;;;5074810;28;20500;-88
2022/05/08 02:11:58;;;;;;;23.50;15.93;;;12.90;99.90;;;;;;5075617;28;20024;-89
2022/05/08 02:14:24;;;;;;;28.48;15.55;;;12.90;99.90;;;;;;5075652;28;20017;-89
2022/05/08 02:16:59;;;;;;;20.00;13.07;;;12.90;99.90;;;;;;5075623;28;20013;-90
2022/05/08 02:19:25;;;;;;;20.42;14.40;;;12.90;99.90;;;;;;5075295;28;20577;-89
2022/05/08 02:21:54;;;;;;;21.38;15.43;;;12.80;99.90;;;;;;5074247;28;20124;-90
2022/05/08 02:24:19;;;;;;;24.80;14.30;;;12.80;99.90;;;;;;5075397;28;20036;-89
2022/05/08 02:26:50;;;;;;;26.80;15.43;;;12.80;99.90;;;;;;5074176;28;20036;-89
2022/05/08 02:29:48;;;;;;;31.05;14.70;;;12.80;99.90;;;;;;5074842;28;20031;-89
2022/05/08 02:32:14;;;;;;;23.73;14.73;;;12.60;99.90;;;;;;5075060;28;20032;-89
2022/05/08 02:34:42;;;;;;;25.35;15.32;;;12.60;99.90;;;;;;5073453;28;20119;-88
2022/05/08 02:37:07;;;;;;;27.77;15.07;;;12.60;99.90;;;;;;5073518;28;20024;-89
2022/05/08 02:39:38;;;;;;;25.55;13.93;;;12.50;99.90;;;;;;5073893;28;20031;-89
2022/05/08 02:42:14;;;;;;;26.85;14.27;;;12.50;99.90;;;;;;5074862;28;20045;-89
2022/05/08 02:44:39;;;;;;;23.27;14.45;;;12.50;99.90;;;;;;5074849;28;20472;-89
2022/05/08 02:47:11;;;;;;;26.98;14.05;;;12.50;99.90;;;;;;5073748;28;20242;-89
2022/05/08 02:49:37;;;;;;;31.67;15.25;;;12.50;99.90;;;;;;5074757;28;20033;-89
2022/05/08 02:52:04;;;;;;;23.95;14.63;;;12.50;99.90;;;;;;5074760;28;20491;-88
2022/05/08 02:54:29;;;;;;;32.35;14.90;;;12.40;99.90;;;;;;5073498;28;20027;-89
2022/05/08 02:59:39;;;;;;;24.17;14.32;;;12.40;99.90;;;;;;5073948;28;20079;-88
2022/05/08 03:02:10;;;;;;;24.13;13.95;;;12.40;99.90;;;;;;5074326;28;20468;-89
2022/05/08 03:04:36;;;;;;;26.25;14.63;;;12.40;99.90;;;;;;5074631;28;20024;-89
2022/05/08 03:07:13;;;;;;;24.20;15.25;;;12.40;99.90;;;;;;5074534;28;20028;-89
2022/05/08 03:09:39;;;;;;;31.08;14.15;;;12.30;99.90;;;;;;5074489;28;20060;-89
2022/05/08 03:12:21;;;;;;;31.33;15.13;;;12.30;99.90;;;;;;5074635;28;20078;-89
2022/05/08 03:14:46;;;;;;;29.75;17.40;;;12.30;99.90;;;;;;5074354;28;20074;-88
2022/05/08 03:17:18;;;;;;;22.42;13.75;;;12.30;99.90;;;;;;5074850;28;20016;-89
2022/05/08 03:19:44;;;;;;;29.38;14.18;;;12.30;99.90;;;;;;5073959;28;20027;-89
2022/05/08 03:22:12;;;;;;;27.15;14.02;;;12.30;99.90;;;;;;5074145;28;20024;-89
2022/05/08 03:24:38;;;;;;;34.33;15.35;;;12.30;99.90;;;;;;5072934;28;20028;-88
2022/05/08 03:27:09;;;;;;;27.40;13.80;;;12.30;99.90;;;;;;5073021;28;20472;-88
2022/05/08 03:29:34;;;;;;;25.55;14.63;;;12.20;99.90;;;;;;5074244;28;20029;-89
2022/05/08 03:32:06;;;;;;;25.90;15.00;;;12.20;99.90;;;;;;5074105;28;20029;-89
2022/05/08 03:34:31;;;;;;;22.08;13.63;;;12.20;99.90;;;;;;5073821;28;20020;-89
2022/05/08 03:37:04;;;;;;;27.58;14.77;;;12.20;99.90;;;;;;5072820;28;20120;-89
2022/05/08 03:39:29;;;;;;;27.02;14.07;;;12.20;99.90;;;;;;5072750;28;20445;-89
2022/05/08 03:41:55;;;;;;;24.40;14.50;;;12.20;99.90;;;;;;5072485;28;20072;-90
2022/05/08 03:44:32;;;;;;;27.05;14.63;;;12.10;99.90;;;;;;5073751;28;20024;-89
2022/05/08 03:46:58;;;;;;;22.92;13.98;;;12.00;99.90;;;;;;5073805;28;20027;-89
2022/05/08 03:49:27;;;;;;;33.90;15.20;;;12.10;99.90;;;;;;5073444;28;20040;-88
2022/05/08 03:51:52;;;;;;;23.35;13.73;;;12.10;99.90;;;;;;5073753;28;20020;-89
2022/05/08 03:54:21;;;;;;;24.52;14.52;;;12.00;99.90;;;;;;5072373;28;20156;-89
2022/05/08 03:56:47;;;;;;;22.80;14.20;;;12.00;99.90;;;;;;5072332;28;20060;-89
2022/05/08 03:59:19;;;;;;;29.20;13.57;;;12.00;99.90;;;;;;5073598;28;20101;-89
2022/05/08 04:01:45;;;;;;;22.08;13.32;;;11.90;99.90;;;;;;5072183;28;20044;-89
2022/05/08 04:04:13;;;;;;;17.35;13.02;;;11.90;99.90;;;;;;5073213;28;20021;-89
2022/05/08 04:06:39;;;;;;;27.95;12.55;;;11.90;99.90;;;;;;5073388;28;20107;-89
2022/05/08 04:09:22;;;;;;;28.23;13.90;;;12.00;99.90;;;;;;5073592;28;20448;-89
2022/05/08 04:11:48;;;;;;;23.63;13.95;;;11.90;99.90;;;;;;5073083;28;20379;-89
2022/05/08 04:14:13;;;;;;;21.30;12.48;;;11.90;99.90;;;;;;5073257;28;20028;-89
2022/05/08 04:16:39;;;;;;;25.77;13.60;;;11.90;99.90;;;;;;5071912;28;20020;-88
2022/05/08 04:19:12;;;;;;;25.65;13.68;;;11.90;99.90;;;;;;5072882;28;20031;-89
2022/05/08 04:21:38;;;;;;;24.20;14.13;;;11.90;99.90;;;;;;5071851;28;20059;-89
2022/05/08 04:24:17;;;;;;;26.67;14.10;;;12.00;99.90;;;;;;5071864;28;20094;-90
2022/05/08 04:26:43;;;;;;;31.50;14.30;;;11.90;99.90;;;;;;5071692;28;20027;-88
2022/05/08 04:29:16;;;;;;;25.27;14.45;;;11.90;99.90;;;;;;5072925;28;20378;-89
2022/05/08 04:31:42;;;;;;;27.90;13.60;;;11.90;99.90;;;;;;5071766;28;20464;-89
2022/05/08 04:34:10;;;;;;;27.50;13.40;;;11.90;99.90;;;;;;5071344;28;20031;-88
2022/05/08 04:36:36;;;;;;;30.75;15.77;;;11.90;99.90;;;;;;5071618;28;20027;-89
2022/05/08 04:39:21;;;;;;;29.02;15.60;;;11.90;99.90;;;;;;5072754;28;20099;-89
2022/05/08 04:41:47;;;;;;;24.45;15.10;;;11.80;99.90;;;;;;5072687;28;20059;-89
2022/05/08 04:44:13;;;;;;;27.67;14.68;;;11.90;99.90;;;;;;5071540;28;20078;-89
2022/05/08 04:46:41;;;;;;;30.63;14.13;;;11.80;99.90;;;;;;5072994;28;20109;-88
2022/05/08 04:49:07;;;;;;;26.98;14.18;;;11.80;99.90;;;;;;5071230;28;20135;-89
2022/05/08 04:51:32;;;;;;;24.15;14.93;;;11.70;99.90;;;;;;5071589;28;20103;-89
2022/05/08 04:53:58;;;;;;;25.50;14.38;;;11.70;99.90;;;;;;5072595;28;20482;-88
2022/05/08 04:56:25;;;;;;;28.02;15.18;;;11.60;99.90;;;;;;5071425;28;20484;-89
2022/05/08 04:58:51;;;;;;;36.15;16.02;;;11.60;99.90;;;;;;5071505;28;20028;-89
2022/05/08 05:01:18;;;;;;;32.28;16.65;;;11.60;99.90;;;;;;5072641;28;20133;-89
2022/05/08 05:03:43;;;;;;;26.08;13.88;;;11.70;99.90;;;;;;5072323;28;20032;-89
2022/05/08 05:06:13;;;;;;;31.63;16.33;;;11.60;99.90;;;;;;5071281;28;20024;-89
2022/05/08 05:08:39;;;;;;;33.60;15.82;;;11.50;99.90;;;;;;5071162;28;20428;-88
2022/05/08 05:11:10;;;;;;;31.55;17.30;;;11.60;99.90;;;;;;5071302;28;20112;-89
2022/05/08 05:13:39;;;;;;;37.00;16.23;;;11.60;99.90;;;;;;5071696;28;20025;-89
2022/05/08 05:16:10;;;;;;;35.85;15.57;;;11.60;99.90;;;;;;5071174;28;20419;-88
2022/05/08 05:18:35;;;;;;;37.03;16.58;;;11.60;99.90;;;;;;5071860;28;20025;-90
2022/05/08 05:21:02;;;;;;;34.10;15.73;;;11.60;99.90;;;;;;5071841;28;20103;-89
2022/05/08 05:23:28;;;;;;;33.50;14.80;;;11.60;99.90;;;;;;5073256;28;20423;-89
2022/05/08 05:26:20;;;;;;;30.65;16.15;;;11.60;99.90;;;;;;5074933;28;20035;-89
2022/05/08 05:28:46;;;;;;;32.45;17.58;;;11.60;99.90;;;;;;5076389;28;20032;-89
2022/05/08 05:31:13;;;;;;;34.45;15.93;;;11.60;99.90;;;;;;5076559;28;20070;-89
2022/05/08 05:33:38;;;;;;;39.10;16.55;;;11.60;99.90;;;;;;5075980;28;20488;-89
2022/05/08 05:36:04;;;;;;;29.92;14.70;;;11.60;99.90;;;;;;5076235;28;20075;-89
2022/05/08 05:38:30;;;;;;;37.88;14.55;;;11.50;99.90;;;;;;5075091;28;20057;-89
2022/05/08 05:40:57;;;;;;;33.60;14.63;;;11.50;99.90;;;;;;5074876;28;20126;-88
2022/05/08 05:43:23;;;;;;;36.38;14.02;;;11.40;99.90;;;;;;5076007;28;20076;-88
2022/05/08 05:48:46;;;;;;;33.05;14.57;;;11.40;99.90;;;;;;5075806;28;20078;-88
2022/05/08 05:51:15;;;;;;;28.33;13.18;;;11.30;99.90;;;;;;5076123;28;20021;-88
2022/05/08 05:53:40;;;;;;;27.35;12.43;;;11.20;99.90;;;;;;5074495;28;20358;-89
2022/05/08 05:56:14;;;;;;;31.70;13.45;;;11.20;99.90;;;;;;5074634;28;20036;-89
2022/05/08 05:58:40;;;;;;;44.80;14.98;;;11.10;99.90;;;;;;5074529;28;20033;-89
2022/05/08 06:01:06;;;;;;;46.35;15.32;;;11.10;99.90;;;;;;5075879;28;20032;-88
2022/05/08 06:03:32;;;;;;;28.45;13.43;;;11.10;99.90;;;;;;5074211;28;20374;-89
2022/05/08 06:06:15;;;;;;;41.60;14.07;;;11.10;99.90;;;;;;5075684;28;20050;-88
2022/05/08 06:08:40;;;;;;;30.15;13.00;;;11.10;99.90;;;;;;5075617;28;20024;-91
2022/05/08 06:11:08;;;;;;;35.80;16.08;;;11.10;99.90;;;;;;5075729;28;20031;-90
2022/05/08 06:13:33;;;;;;;36.00;14.82;;;11.00;99.90;;;;;;5075618;28;20381;-91
2022/05/08 06:15:59;;;;;;;33.05;13.85;;;11.10;99.90;;;;;;5075439;28;20035;-90
2022/05/08 06:18:24;;;;;;;35.13;13.20;;;11.00;99.90;;;;;;5075267;28;20090;-90
2022/05/08 06:20:58;;;;;;;33.22;13.73;;;11.10;99.90;;;;;;5075407;28;20354;-91
2022/05/08 06:23:25;;;;;;;33.33;13.45;;;11.00;99.90;;;;;;5074019;28;20024;-91
2022/05/08 06:25:57;;;;;;;35.35;12.77;;;11.10;99.90;;;;;;5074060;28;20025;-90
2022/05/08 06:28:22;;;;;;;32.30;13.50;;;11.10;99.90;;;;;;5075270;28;20150;-90
2022/05/08 06:30:50;;;;;;;33.92;13.52;;;11.10;99.90;;;;;;5075342;28;20058;-90
2022/05/08 06:33:15;;;;;;;45.13;14.85;;;11.20;99.90;;;;;;5073810;28;20025;-91
2022/05/08 06:35:49;;;;;;;26.27;11.65;;;11.20;99.90;;;;;;5074900;28;20028;-91
2022/05/08 06:38:15;;;;;;;41.30;13.95;;;11.30;99.90;;;;;;5073834;28;20033;-90
2022/05/08 06:40:55;;;;;;;31.23;13.50;;;11.30;99.90;;;;;;5075070;28;20043;-90
2022/05/08 06:43:21;;;;;;;41.22;13.88;;;11.30;99.90;;;;;;5073535;28;20044;-90
2022/05/08 06:45:47;;;;;;;26.27;12.95;;;11.30;99.90;;;;;;5075102;28;20027;-90
2022/05/08 06:48:13;;;;;;;32.53;12.68;;;11.30;99.90;;;;;;5074597;28;20036;-91
2022/05/08 06:50:49;;;;;;;32.90;14.55;;;11.30;99.90;;;;;;5073668;28;20021;-89
2022/05/08 06:53:15;;;;;;;32.90;14.07;;;11.40;99.90;;;;;;5073575;28;20028;-90
2022/05/08 06:55:45;;;;;;;39.60;14.63;;;11.40;99.90;;;;;;5073473;28;20377;-91
2022/05/08 06:58:11;;;;;;;39.78;15.00;;;11.40;99.90;;;;;;5073529;28;20021;-90
2022/05/08 07:03:22;;;;;;;;;;;11.40;99.90;;;;;;5074904;28;20055;-90
2022/05/08 07:05:51;;;;;;;41.72;16.73;;;11.30;99.90;;;;;;5073428;28;19905;-90
2022/05/08 07:08:17;;;;;;;42.90;16.25;;;11.30;99.90;;;;;;5074703;28;20033;-91
2022/05/08 07:10:45;;;;;;;38.65;15.98;;;11.30;99.90;;;;;;5074440;28;20108;-91
2022/05/08 07:13:10;;;;;;;49.08;18.23;;;11.30;99.90;;;;;;5074436;28;20025;-92
2022/05/08 07:15:41;;;;;;;44.83;16.88;;;11.30;99.90;;;;;;5073141;28;20473;-90
2022/05/08 07:18:07;;;;;;;44.00;16.77;;;11.40;99.90;;;;;;5072844;28;20107;-90
2022/05/08 07:20:44;;;;;;;46.90;17.30;;;11.40;99.90;;;;;;5073179;28;20067;-90
2022/05/08 07:23:11;;;;;;;32.90;14.18;;;11.50;99.90;;;;;;5072875;28;20051;-90
2022/05/08 07:25:41;;;;;;;47.30;16.50;;;11.50;99.90;;;;;;5074272;28;20021;-90
2022/05/08 07:28:07;;;;;;;38.80;15.07;;;11.50;99.90;;;;;;5074139;28;20498;-91
2022/05/08 07:30:34;;;;;;;34.13;14.52;;;11.50;99.90;;;;;;5072906;28;20108;-90
2022/05/08 07:33:01;;;;;;;35.25;14.23;;;11.60;99.90;;;;;;5073476;28;20366;-90
2022/05/08 07:38:25;;;;;;;35.05;14.40;;;11.60;99.90;;;;;;5074399;28;20063;-90
2022/05/08 07:41:17;;;;;;;46.97;15.25;;;11.70;99.90;;;;;;5072699;28;20025;-90
2022/05/08 07:43:46;;;;;;;44.22;15.68;;;11.70;99.90;;;;;;5073674;28;20551;-90
2022/05/08 07:46:14;;;;;;;42.67;14.68;;;11.60;99.90;;;;;;5073324;28;20578;-91
2022/05/08 07:48:40;;;;;;;55.25;16.70;;;11.70;99.90;;;;;;5073462;28;20442;-90
2022/05/08 07:51:09;;;;;;;39.72;15.38;;;11.70;99.90;;;;;;5072418;28;20060;-90
2022/05/08 07:53:35;;;;;;;57.53;16.70;;;11.80;99.90;;;;;;5072154;28;20059;-91
2022/05/08 07:56:01;;;;;;;43.95;16.38;;;11.90;99.90;;;;;;5072369;28;20028;-90
2022/05/08 07:58:28;;;;;;;46.20;15.65;;;11.90;99.90;;;;;;5073547;28;20025;-91
2022/05/08 08:00:56;;;;;;;45.15;15.43;;;12.00;99.90;;;;;;5073621;28;20025;-91
2022/05/08 08:03:27;;;;;;;42.38;15.45;;;12.10;99.90;;;;;;5071695;28;20021;-88
2022/05/08 08:06:19;;;;;;;49.78;15.30;;;12.20;99.90;;;;;;5073514;28;20031;-89
2022/05/08 08:08:45;;;;;;;42.33;13.90;;;12.20;99.90;;;;;;5071647;28;20031;-89
2022/05/08 08:11:11;;;;;;;47.00;14.07;;;12.20;99.90;;;;;;5073106;28;20016;-89
2022/05/08 08:13:37;;;;;;;42.00;14.23;;;12.20;99.90;;;;;;5072037;28;20035;-91
2022/05/08 08:16:11;;;;;;;39.88;14.52;;;12.30;99.90;;;;;;5072954;28;20107;-91
2022/05/08 08:18:37;;;;;;;43.72;14.05;;;12.30;99.90;;;;;;5073025;28;20029;-91
2022/05/08 08:21:04;;;;;;;52.40;13.82;;;12.40;99.90;;;;;;5073138;28;20112;-91
2022/05/08 08:23:30;;;;;;;43.92;14.02;;;12.50;99.90;;;;;;5073173;28;20056;-91
2022/05/08 08:26:09;;;;;;;46.10;12.23;;;12.50;99.90;;;;;;5073170;28;20112;-90
2022/05/08 08:28:35;;;;;;;37.53;11.73;;;12.50;99.90;;;;;;5073452;28;20081;-91
2022/05/08 08:31:12;;;;;;;38.40;12.63;;;12.60;99.90;;;;;;5072986;28;20024;-91
2022/05/08 08:33:39;;;;;;;32.33;11.88;;;12.60;99.90;;;;;;5072009;28;20071;-88
2022/05/08 08:36:25;;;;;;;30.52;10.60;;;12.70;99.90;;;;;;5071757;28;20464;-89
2022/05/08 08:38:51;;;;;;;49.17;13.73;;;12.90;99.90;;;;;;5071886;28;20028;-91
2022/05/08 08:41:44;;;;;;;39.58;11.50;;;12.90;99.90;;;;;;5073042;28;20028;-89
2022/05/08 08:49:47;;;;;;;35.47;10.25;;;13.20;99.90;;;;;;5072791;28;20063;-91
2022/05/08 08:52:22;;;;;;;33.45;10.55;;;13.30;99.90;;;;;;5071591;28;20516;-92
2022/05/08 08:54:48;;;;;;;33.72;10.20;;;13.30;99.90;;;;;;5071639;28;20407;-92
2022/05/08 08:57:46;;;;;;;28.63;9.23;;;13.30;99.90;;;;;;5072544;28;20029;-92
2022/05/08 09:00:13;;;;;;;29.00;8.57;;;13.30;99.90;;;;;;5072609;28;20025;-92
2022/05/08 09:02:40;;;;;;;36.25;10.45;;;13.20;99.90;;;;;;5070936;28;20024;-91
2022/05/08 09:05:07;;;;;;;27.48;8.98;;;13.20;99.90;;;;;;5072710;28;20016;-92
2022/05/08 09:08:20;;;;;;;35.10;10.48;;;13.30;99.90;;;;;;5071658;28;20116;-93
2022/05/08 09:10:47;;;;;;;45.72;10.45;;;13.50;99.90;;;;;;5071493;28;20074;-92
2022/05/08 09:13:47;;;;;;;33.90;8.75;;;13.50;99.90;;;;;;5072579;28;20020;-91
2022/05/08 09:16:13;;;;;;;37.28;10.35;;;13.60;99.90;;;;;;5071470;28;20032;-92
2022/05/08 09:19:19;;;;;;;29.95;8.90;;;13.70;99.90;;;;;;5071050;28;20480;-92
2022/05/08 09:21:58;;;;;;;40.30;9.98;;;13.70;99.90;;;;;;5071623;28;20048;-89
2022/05/08 09:24:23;;;;;;;39.40;9.85;;;13.80;99.90;;;;;;5071677;28;20166;-89
2022/05/08 09:27:30;;;;;;;43.13;11.15;;;13.90;99.90;;;;;;5071580;28;20059;-89
2022/05/08 09:30:07;;;;;;;24.17;8.63;;;13.90;99.90;;;;;;5072927;28;20029;-90
2022/05/08 09:32:38;;;;;;;26.75;8.05;;;13.90;99.90;;;;;;5072030;28;20032;-90
2022/05/08 09:35:05;;;;;;;37.67;9.43;;;14.00;99.90;;;;;;5072691;28;20495;-90
2022/05/08 09:37:31;;;;;;;21.80;7.35;;;14.10;99.90;;;;;;5072661;28;20108;-92
2022/05/08 09:40:22;;;;;;;28.80;8.73;;;14.10;99.90;;;;;;5071158;28;20119;-93
2022/05/08 09:43:34;;;;;;;30.60;7.35;;;14.10;99.90;;;;;;5071157;28;20530;-93
2022/05/08 09:46:01;;;;;;;26.63;7.10;;;14.20;99.90;;;;;;5071184;28;20370;-91
2022/05/08 09:48:28;;;;;;;25.10;6.97;;;14.20;99.90;;;;;;5072340;28;20032;-92
2022/05/08 09:50:57;;;;;;;23.05;6.45;;;14.20;99.90;;;;;;5072559;28;20099;-92
2022/05/08 09:53:48;;;;;;;22.98;6.85;;;14.30;99.90;;;;;;5072233;28;20024;-92
2022/05/08 09:56:14;;;;;;;35.70;7.82;;;14.40;99.90;;;;;;5072492;28;20020;-93
2022/05/08 09:58:40;;;;;;;26.50;6.47;;;14.40;99.90;;;;;;5071118;28;20040;-93
2022/05/08 10:01:07;;;;;;;22.75;6.72;;;14.50;99.90;;;;;;5071489;28;20606;-92
2022/05/08 10:04:21;;;;;;;18.67;6.38;;;14.60;99.90;;;;;;5071017;28;20476;-92
2022/05/08 10:06:47;;;;;;;22.40;6.95;;;14.70;99.90;;;;;;5072693;28;20032;-95
2022/05/08 10:15:37;;;;;;;24.05;6.15;;;14.80;99.90;;;;;;5076115;28;20028;-90
2022/05/08 10:18:24;;;;;;;12.50;4.30;;;14.80;99.90;;;;;;5074512;28;20070;-91
2022/05/08 10:21:12;;;;;;;31.83;6.93;;;14.80;99.90;;;;;;5075939;28;20399;-90
2022/05/08 10:23:42;;;;;;;23.75;5.88;;;14.90;99.90;;;;;;5075838;28;20024;-90
2022/05/08 10:26:23;;;;;;;20.75;6.57;;;15.10;99.90;;;;;;5074835;28;20024;-89
2022/05/08 10:29:03;;;;;;;15.10;4.68;;;15.10;99.90;;;;;;5075966;28;20023;-91
2022/05/08 10:31:48;;;;;;;10.02;2.75;;;15.20;99.90;;;;;;5076047;28;20112;-90
2022/05/08 10:34:15;;;;;;;17.52;3.65;;;15.30;99.90;;;;;;5075675;28;20023;-90
2022/05/08 10:37:11;;;;;;;13.88;4.47;;;15.30;99.90;;;;;;5074863;28;20365;-90
2022/05/08 10:39:47;;;;;;;22.13;5.07;;;15.40;99.90;;;;;;5076321;28;20024;-90
2022/05/08 10:42:27;;;;;;;25.05;5.88;;;15.30;99.90;;;;;;5070662;28;20048;-90
2022/05/08 10:44:54;;;;;;;26.25;5.53;;;15.30;99.90;;;;;;5075704;28;20032;-90
2022/05/08 10:47:43;;;;;;;22.95;6.35;;;15.40;99.90;;;;;;5075584;28;20025;-91
2022/05/08 10:50:11;;;;;;;22.55;6.07;;;15.40;99.90;;;;;;5074644;28;20032;-91
2022/05/08 10:53:20;;;;;;;22.05;5.65;;;15.50;99.90;;;;;;5075151;28;20111;-92
2022/05/08 10:55:45;;;;;;;26.58;6.20;;;15.60;99.90;;;;;;5074903;28;20025;-91
2022/05/08 10:58:25;;;;;;;16.70;4.93;;;15.70;99.90;;;;;;5074541;28;20027;-91
2022/05/08 11:00:56;;;;;;;12.80;4.32;;;15.80;99.90;;;;;;5075337;28;20032;-91
2022/05/08 11:06:44;;;;;;;16.40;3.72;;;15.90;99.90;;;;;;5076352;28;20091;-92
2022/05/08 11:09:13;;;;;;;12.15;2.60;;;15.90;99.90;;;;;;5075578;28;20028;-91
2022/05/08 11:11:40;;;;;;;7.85;2.13;;;15.90;99.90;;;;;;5074330;28;20052;-92
2022/05/08 11:14:28;;;;;;;6.68;2.50;;;15.90;99.90;;;;;;5074417;28;20020;-91
2022/05/08 11:16:54;;;;;;;19.90;3.38;;;15.90;99.90;;;;;;5074390;28;20362;-91
2022/05/08 11:19:26;;;;;;;13.00;2.90;;;16.00;99.90;;;;;;5074483;28;20031;-92
2022/05/08 11:22:18;;;;;;;12.05;2.90;;;16.10;99.90;;;;;;5073243;28;20021;-93
2022/05/08 11:24:47;;;;;;;20.92;3.55;;;16.10;99.90;;;;;;5074525;28;20025;-92
2022/05/08 11:27:13;;;;;;;21.80;3.10;;;16.10;99.90;;;;;;5074379;28;20020;-93
2022/05/08 11:38:42;;;;;;;13.02;3.15;;;16.20;99.90;;;;;;5077765;28;20031;-95
2022/05/08 11:44:32;;;;;;;12.55;3.58;;;16.30;96.00;;;;;;5053620;28;20035;-94
2022/05/08 11:46:58;;;;;;;9.70;2.97;;;16.30;95.00;;;;;;5056765;28;20052;-91
2022/05/08 11:49:29;;;;;;;17.45;3.00;;;16.40;97.30;;;;;;5057126;28;20037;-93
2022/05/08 11:52:25;;;;;;;13.00;3.40;;;16.40;99.40;;;;;;5056167;28;20393;-91
2022/05/08 11:55:02;;;;;;;11.38;2.83;;;16.40;98.10;;;;;;5057395;28;20025;-91
2022/05/08 11:57:49;;;;;;;14.73;2.60;;;16.40;99.90;;;;;;5056677;28;20032;-91
2022/05/08 12:00:15;;;;;;;9.75;2.97;;;16.50;95.60;;;;;;5057337;28;20028;-92
2022/05/08 12:03:25;;;;;;;9.82;2.63;;;16.50;89.00;;;;;;5056386;28;20028;-91
2022/05/08 12:06:11;;;;;;;8.02;2.45;;;16.60;77.90;;;;;;5073845;28;20012;-92
2022/05/08 12:08:36;;;;;;;16.88;2.90;;;16.60;81.30;;;;;;5073484;28;20021;-85
2022/05/08 12:11:33;;;;;;;6.65;2.00;;;16.70;93.80;;;;;;5073346;28;20476;-83
2022/05/08 12:14:07;;;;;;;11.55;3.15;;;16.80;79.40;;;;;;5072979;28;20041;-82
2022/05/08 12:16:34;;;;;;;7.72;2.13;;;16.90;85.50;;;;;;5073256;28;20075;-84
2022/05/08 12:19:15;;;;;;;12.73;2.88;;;16.90;86.30;;;;;;5072999;28;20025;-89
2022/05/08 12:21:45;;;;;;;15.52;3.15;;;16.90;97.60;;;;;;5071946;28;20035;-84
2022/05/08 12:24:19;;;;;;;11.85;3.08;;;17.00;93.60;;;;;;5072589;28;20135;-86
2022/05/08 12:26:44;;;;;;;8.82;1.80;;;17.00;98.30;;;;;;5073128;28;20626;-88
2022/05/08 12:29:22;;;;;;;9.27;2.28;;;17.00;99.90;;;;;;5072765;28;20035;-84
2022/05/08 12:31:50;;;;;;;23.33;4.32;;;17.00;99.90;;;;;;5070460;28;20017;-87
2022/05/08 12:34:17;;;;;;;12.95;2.90;;;17.10;99.90;;;;;;5066242;28;20457;-87
2022/05/08 12:36:42;;;;;;;14.80;3.22;;;17.10;99.90;;;;;;5072675;28;20378;-88
2022/05/08 12:39:14;;;;;;;17.73;3.65;;;17.20;98.50;;;;;;5071780;28;20033;-86
2022/05/08 12:41:40;;;;;;;14.27;2.85;;;17.20;95.30;;;;;;5077254;28;20100;-87
2022/05/08 12:44:06;;;;;;;9.65;2.33;;;17.20;91.80;;;;;;5068966;28;20054;-86
2022/05/08 12:46:34;;;;;;;9.60;1.92;;;17.10;95.90;;;;;;5070546;28;20101;-88
2022/05/08 12:49:02;;;;;;;9.77;2.53;;;17.10;97.00;;;;;;5065072;28;20504;-87
2022/05/08 12:51:44;;;;;;;8.18;2.25;;;17.20;90.80;;;;;;5075236;28;20353;-87
2022/05/08 12:54:10;;;;;;;10.90;2.13;;;17.20;92.90;;;;;;5075266;28;20058;-86
2022/05/08 12:57:02;;;;;;;6.78;2.08;;;17.30;93.40;;;;;;5071120;28;20111;-87
2022/05/08 12:59:50;;;;;;;8.15;1.98;;;17.40;90.00;;;;;;5065433;28;20119;-87
2022/05/08 13:02:19;;;;;;;8.63;2.63;;;17.40;83.30;;;;;;5052557;28;20388;-85
2022/05/08 13:05:00;;;;;;;8.82;2.53;;;17.30;90.70;;;;;;5069072;28;20467;-84
2022/05/08 13:07:25;;;;;;;17.83;3.47;;;17.30;91.90;;;;;;5064832;28;20587;-86
2022/05/08 13:09:58;;;;;;;14.40;2.47;;;17.40;95.80;;;;;;5068164;28;20028;-84
2022/05/08 13:12:24;;;;;;;14.68;2.78;;;17.40;95.10;;;;;;5067364;28;20107;-84
2022/05/08 13:14:49;;;;;;;10.40;2.58;;;17.30;98.20;;;;;;5068897;28;20446;-85
2022/05/08 13:17:16;;;;;;;8.88;1.92;;;17.40;99.90;;;;;;5071679;28;20104;-85
2022/05/08 13:19:41;;;;;;;9.35;2.10;;;17.50;96.50;;;;;;5068325;28;20123;-84
2022/05/08 13:22:07;;;;;;;14.07;2.63;;;17.40;97.00;;;;;;5068710;28;20103;-86
2022/05/08 13:24:43;;;;;;;8.88;2.15;;;17.40;92.70;;;;;;5062095;28;20021;-84
2022/05/08 13:27:22;;;;;;;;;;;;;;;;;;;;;
2022/05/08 13:29:53;;;;;;;8.07;2.25;;;17.50;98.50;;;;;;5059804;28;20029;-85
2022/05/08 13:32:18;;;;;;;14.02;3.38;;;17.60;99.10;;;;;;5059618;28;20577;-85
2022/05/08 13:34:51;;;;;;;11.40;3.25;;;17.70;98.20;;;;;;5070512;28;20021;-84